sensor_id;sensor_type;location;lat;lon;timestamp;P1;durP1;ratioP1;P2;durP2;ratioP2
8319;SDS011;4197;42.130;24.746;2023-08-31T00:00:43;6.85;;;3.75;;
8319;SDS011;4197;42.130;24.746;2023-08-31T00:03:12;5.57;;;3.58;;
8319;SDS011;4197;42.130;24.746;2023-08-31T00:05:42;5.55;;;3.55;;
8319;SDS011;4197;42.130;24.746;2023-08-31T00:08:11;6.70;;;3.75;;
8319;SDS011;4197;42.130;24.746;2023-08-31T00:10:40;4.55;;;3.35;;
8319;SDS011;4197;42.130;24.746;2023-08-31T00:13:08;5.32;;;3.65;;
8319;SDS011;4197;42.130;24.746;2023-08-31T00:15:37;5.80;;;3.38;;
8319;SDS011;4197;42.130;24.746;2023-08-31T00:18:07;6.13;;;3.90;;
8319;SDS011;4197;42.130;24.746;2023-08-31T00:20:36;5.60;;;3.67;;
8319;SDS011;4197;42.130;24.746;2023-08-31T00:23:04;6.93;;;3.90;;
8319;SDS011;4197;42.130;24.746;2023-08-31T00:25:33;5.63;;;4.15;;
8319;SDS011;4197;42.130;24.746;2023-08-31T00:28:02;6.10;;;3.53;;
8319;SDS011;4197;42.130;24.746;2023-08-31T00:30:31;9.75;;;3.75;;
8319;SDS011;4197;42.130;24.746;2023-08-31T00:33:00;5.47;;;3.53;;
8319;SDS011;4197;42.130;24.746;2023-08-31T00:35:28;4.68;;;3.50;;
8319;SDS011;4197;42.130;24.746;2023-08-31T00:37:57;9.02;;;3.75;;
8319;SDS011;4197;42.130;24.746;2023-08-31T00:40:25;6.20;;;3.90;;
8319;SDS011;4197;42.130;24.746;2023-08-31T00:42:54;6.18;;;3.95;;
8319;SDS011;4197;42.130;24.746;2023-08-31T00:45:24;5.53;;;3.47;;
8319;SDS011;4197;42.130;24.746;2023-08-31T00:47:54;7.18;;;3.60;;
8319;SDS011;4197;42.130;24.746;2023-08-31T00:50:23;8.40;;;4.30;;
8319;SDS011;4197;42.130;24.746;2023-08-31T00:52:52;7.10;;;3.25;;
8319;SDS011;4197;42.130;24.746;2023-08-31T00:55:20;5.78;;;3.38;;
8319;SDS011;4197;42.130;24.746;2023-08-31T00:57:48;7.00;;;3.50;;
8319;SDS011;4197;42.130;24.746;2023-08-31T01:00:17;3.72;;;2.97;;
8319;SDS011;4197;42.130;24.746;2023-08-31T01:02:50;4.18;;;3.33;;
8319;SDS011;4197;42.130;24.746;2023-08-31T01:05:33;6.85;;;3.28;;
8319;SDS011;4197;42.130;24.746;2023-08-31T01:08:10;4.68;;;3.03;;
8319;SDS011;4197;42.130;24.746;2023-08-31T01:10:48;4.57;;;3.10;;
8319;SDS011;4197;42.130;24.746;2023-08-31T01:13:26;4.35;;;2.88;;
8319;SDS011;4197;42.130;24.746;2023-08-31T01:15:59;8.23;;;6.15;;
8319;SDS011;4197;42.130;24.746;2023-08-31T01:18:32;15.98;;;10.05;;
8319;SDS011;4197;42.130;24.746;2023-08-31T01:21:05;7.07;;;5.80;;
8319;SDS011;4197;42.130;24.746;2023-08-31T01:26:31;10.35;;;5.18;;
8319;SDS011;4197;42.130;24.746;2023-08-31T01:29:00;10.15;;;3.65;;
8319;SDS011;4197;42.130;24.746;2023-08-31T01:31:28;5.93;;;3.25;;
8319;SDS011;4197;42.130;24.746;2023-08-31T01:33:56;5.15;;;3.15;;
8319;SDS011;4197;42.130;24.746;2023-08-31T01:36:26;4.85;;;3.03;;
8319;SDS011;4197;42.130;24.746;2023-08-31T01:38:58;6.68;;;3.75;;
8319;SDS011;4197;42.130;24.746;2023-08-31T01:41:32;5.43;;;2.90;;
8319;SDS011;4197;42.130;24.746;2023-08-31T01:44:02;6.10;;;2.90;;
8319;SDS011;4197;42.130;24.746;2023-08-31T01:46:32;6.78;;;3.45;;
8319;SDS011;4197;42.130;24.746;2023-08-31T01:49:01;5.68;;;2.70;;
8319;SDS011;4197;42.130;24.746;2023-08-31T01:51:32;4.90;;;2.58;;
8319;SDS011;4197;42.130;24.746;2023-08-31T01:54:00;5.75;;;2.78;;
8319;SDS011;4197;42.130;24.746;2023-08-31T01:56:29;5.95;;;3.08;;
8319;SDS011;4197;42.130;24.746;2023-08-31T01:58:59;4.50;;;2.80;;
8319;SDS011;4197;42.130;24.746;2023-08-31T02:01:27;5.03;;;3.03;;
8319;SDS011;4197;42.130;24.746;2023-08-31T02:03:56;4.47;;;2.70;;
8319;SDS011;4197;42.130;24.746;2023-08-31T02:06:24;5.95;;;3.60;;
8319;SDS011;4197;42.130;24.746;2023-08-31T02:08:53;4.63;;;2.88;;
8319;SDS011;4197;42.130;24.746;2023-08-31T02:11:21;6.45;;;3.05;;
8319;SDS011;4197;42.130;24.746;2023-08-31T02:13:49;4.63;;;2.75;;
8319;SDS011;4197;42.130;24.746;2023-08-31T02:16:18;5.80;;;2.70;;
8319;SDS011;4197;42.130;24.746;2023-08-31T02:18:47;4.05;;;3.03;;
8319;SDS011;4197;42.130;24.746;2023-08-31T02:21:15;4.95;;;2.53;;
8319;SDS011;4197;42.130;24.746;2023-08-31T02:23:43;5.88;;;3.40;;
8319;SDS011;4197;42.130;24.746;2023-08-31T02:26:11;7.60;;;3.03;;
8319;SDS011;4197;42.130;24.746;2023-08-31T02:28:39;4.82;;;3.17;;
8319;SDS011;4197;42.130;24.746;2023-08-31T02:31:09;4.53;;;2.63;;
8319;SDS011;4197;42.130;24.746;2023-08-31T02:33:39;6.38;;;3.25;;
8319;SDS011;4197;42.130;24.746;2023-08-31T02:36:07;5.35;;;3.10;;
8319;SDS011;4197;42.130;24.746;2023-08-31T02:38:36;6.20;;;3.20;;
8319;SDS011;4197;42.130;24.746;2023-08-31T02:41:04;6.28;;;2.80;;
8319;SDS011;4197;42.130;24.746;2023-08-31T02:43:32;6.53;;;3.80;;
8319;SDS011;4197;42.130;24.746;2023-08-31T02:46:00;8.38;;;3.33;;
8319;SDS011;4197;42.130;24.746;2023-08-31T02:48:29;5.30;;;3.00;;
8319;SDS011;4197;42.130;24.746;2023-08-31T02:50:59;5.90;;;3.40;;
8319;SDS011;4197;42.130;24.746;2023-08-31T02:53:29;7.55;;;3.40;;
8319;SDS011;4197;42.130;24.746;2023-08-31T02:55:58;7.45;;;3.05;;
8319;SDS011;4197;42.130;24.746;2023-08-31T02:58:26;8.10;;;3.85;;
8319;SDS011;4197;42.130;24.746;2023-08-31T03:00:54;6.30;;;3.20;;
8319;SDS011;4197;42.130;24.746;2023-08-31T03:03:23;7.78;;;3.50;;
8319;SDS011;4197;42.130;24.746;2023-08-31T03:05:54;6.55;;;2.92;;
8319;SDS011;4197;42.130;24.746;2023-08-31T03:08:25;5.30;;;3.88;;
8319;SDS011;4197;42.130;24.746;2023-08-31T03:10:53;10.98;;;3.60;;
8319;SDS011;4197;42.130;24.746;2023-08-31T03:13:22;3.97;;;3.08;;
8319;SDS011;4197;42.130;24.746;2023-08-31T03:15:50;5.63;;;3.22;;
8319;SDS011;4197;42.130;24.746;2023-08-31T03:18:19;6.50;;;3.33;;
8319;SDS011;4197;42.130;24.746;2023-08-31T03:20:47;5.45;;;3.30;;
8319;SDS011;4197;42.130;24.746;2023-08-31T03:23:15;5.30;;;3.30;;
8319;SDS011;4197;42.130;24.746;2023-08-31T03:25:45;10.02;;;3.90;;
8319;SDS011;4197;42.130;24.746;2023-08-31T03:28:13;5.00;;;3.08;;
8319;SDS011;4197;42.130;24.746;2023-08-31T03:30:41;7.97;;;3.55;;
8319;SDS011;4197;42.130;24.746;2023-08-31T03:33:11;6.22;;;3.22;;
8319;SDS011;4197;42.130;24.746;2023-08-31T03:35:40;5.07;;;3.30;;
8319;SDS011;4197;42.130;24.746;2023-08-31T03:38:08;6.68;;;4.65;;
8319;SDS011;4197;42.130;24.746;2023-08-31T03:40:36;6.95;;;3.70;;
8319;SDS011;4197;42.130;24.746;2023-08-31T03:43:06;8.82;;;3.85;;
8319;SDS011;4197;42.130;24.746;2023-08-31T03:45:34;8.85;;;3.63;;
8319;SDS011;4197;42.130;24.746;2023-08-31T03:48:02;7.43;;;3.75;;
8319;SDS011;4197;42.130;24.746;2023-08-31T03:50:31;8.30;;;3.92;;
8319;SDS011;4197;42.130;24.746;2023-08-31T03:52:59;8.10;;;3.78;;
8319;SDS011;4197;42.130;24.746;2023-08-31T03:55:28;8.55;;;3.75;;
8319;SDS011;4197;42.130;24.746;2023-08-31T03:57:56;7.82;;;4.05;;
8319;SDS011;4197;42.130;24.746;2023-08-31T04:00:26;10.18;;;4.57;;
8319;SDS011;4197;42.130;24.746;2023-08-31T04:02:54;5.50;;;3.88;;
8319;SDS011;4197;42.130;24.746;2023-08-31T04:05:26;5.43;;;3.75;;
8319;SDS011;4197;42.130;24.746;2023-08-31T04:07:54;9.40;;;3.85;;
8319;SDS011;4197;42.130;24.746;2023-08-31T04:10:22;11.27;;;3.75;;
8319;SDS011;4197;42.130;24.746;2023-08-31T04:12:51;7.72;;;3.70;;
8319;SDS011;4197;42.130;24.746;2023-08-31T04:15:19;7.93;;;4.38;;
8319;SDS011;4197;42.130;24.746;2023-08-31T04:17:49;13.25;;;3.97;;
8319;SDS011;4197;42.130;24.746;2023-08-31T04:20:18;8.57;;;3.53;;
8319;SDS011;4197;42.130;24.746;2023-08-31T04:22:46;8.13;;;3.90;;
8319;SDS011;4197;42.130;24.746;2023-08-31T04:25:14;4.97;;;3.47;;
8319;SDS011;4197;42.130;24.746;2023-08-31T04:27:42;9.13;;;3.42;;
8319;SDS011;4197;42.130;24.746;2023-08-31T04:30:11;5.47;;;2.92;;
8319;SDS011;4197;42.130;24.746;2023-08-31T04:32:40;8.02;;;3.47;;
8319;SDS011;4197;42.130;24.746;2023-08-31T04:35:10;6.85;;;3.78;;
8319;SDS011;4197;42.130;24.746;2023-08-31T04:37:38;8.00;;;3.78;;
8319;SDS011;4197;42.130;24.746;2023-08-31T04:40:07;9.57;;;3.60;;
8319;SDS011;4197;42.130;24.746;2023-08-31T04:42:36;8.38;;;3.65;;
8319;SDS011;4197;42.130;24.746;2023-08-31T04:45:05;8.18;;;4.45;;
8319;SDS011;4197;42.130;24.746;2023-08-31T04:47:34;8.13;;;4.07;;
8319;SDS011;4197;42.130;24.746;2023-08-31T04:50:02;14.77;;;4.68;;
8319;SDS011;4197;42.130;24.746;2023-08-31T04:52:34;19.90;;;4.80;;
8319;SDS011;4197;42.130;24.746;2023-08-31T04:55:02;15.75;;;4.85;;
8319;SDS011;4197;42.130;24.746;2023-08-31T04:57:34;8.68;;;3.97;;
8319;SDS011;4197;42.130;24.746;2023-08-31T05:00:03;16.65;;;4.65;;
8319;SDS011;4197;42.130;24.746;2023-08-31T05:02:33;11.07;;;5.05;;
8319;SDS011;4197;42.130;24.746;2023-08-31T05:05:01;11.20;;;4.43;;
8319;SDS011;4197;42.130;24.746;2023-08-31T05:07:31;9.40;;;4.70;;
8319;SDS011;4197;42.130;24.746;2023-08-31T05:10:00;9.70;;;4.63;;
8319;SDS011;4197;42.130;24.746;2023-08-31T05:12:29;9.65;;;4.50;;
8319;SDS011;4197;42.130;24.746;2023-08-31T05:14:58;10.40;;;3.78;;
8319;SDS011;4197;42.130;24.746;2023-08-31T05:17:26;7.50;;;3.20;;
8319;SDS011;4197;42.130;24.746;2023-08-31T05:19:54;11.35;;;3.67;;
8319;SDS011;4197;42.130;24.746;2023-08-31T05:22:22;15.85;;;3.75;;
8319;SDS011;4197;42.130;24.746;2023-08-31T05:24:51;9.93;;;3.80;;
8319;SDS011;4197;42.130;24.746;2023-08-31T05:27:20;8.43;;;3.65;;
8319;SDS011;4197;42.130;24.746;2023-08-31T05:29:49;8.45;;;3.58;;
8319;SDS011;4197;42.130;24.746;2023-08-31T05:32:17;6.30;;;3.35;;
8319;SDS011;4197;42.130;24.746;2023-08-31T05:34:45;10.20;;;3.35;;
8319;SDS011;4197;42.130;24.746;2023-08-31T05:37:13;9.77;;;3.22;;
8319;SDS011;4197;42.130;24.746;2023-08-31T05:39:41;6.75;;;3.33;;
8319;SDS011;4197;42.130;24.746;2023-08-31T05:42:09;6.60;;;3.22;;
8319;SDS011;4197;42.130;24.746;2023-08-31T05:44:39;7.55;;;3.40;;
8319;SDS011;4197;42.130;24.746;2023-08-31T05:47:07;4.90;;;2.95;;
8319;SDS011;4197;42.130;24.746;2023-08-31T05:49:36;5.78;;;2.90;;
8319;SDS011;4197;42.130;24.746;2023-08-31T05:52:04;8.80;;;3.00;;
8319;SDS011;4197;42.130;24.746;2023-08-31T05:54:33;6.82;;;3.10;;
8319;SDS011;4197;42.130;24.746;2023-08-31T05:57:02;5.18;;;3.28;;
8319;SDS011;4197;42.130;24.746;2023-08-31T05:59:32;8.40;;;2.85;;
8319;SDS011;4197;42.130;24.746;2023-08-31T06:02:02;5.00;;;2.88;;
8319;SDS011;4197;42.130;24.746;2023-08-31T06:04:31;7.95;;;2.63;;
8319;SDS011;4197;42.130;24.746;2023-08-31T06:06:59;7.55;;;3.00;;
8319;SDS011;4197;42.130;24.746;2023-08-31T06:09:28;5.45;;;2.47;;
8319;SDS011;4197;42.130;24.746;2023-08-31T06:11:56;6.53;;;2.90;;
8319;SDS011;4197;42.130;24.746;2023-08-31T06:14:24;3.30;;;2.40;;
8319;SDS011;4197;42.130;24.746;2023-08-31T06:16:52;4.75;;;2.90;;
8319;SDS011;4197;42.130;24.746;2023-08-31T06:19:22;9.55;;;2.67;;
8319;SDS011;4197;42.130;24.746;2023-08-31T06:21:50;5.35;;;2.55;;
8319;SDS011;4197;42.130;24.746;2023-08-31T06:24:18;6.05;;;2.40;;
8319;SDS011;4197;42.130;24.746;2023-08-31T06:26:46;12.52;;;3.05;;
8319;SDS011;4197;42.130;24.746;2023-08-31T06:29:15;9.23;;;2.78;;
8319;SDS011;4197;42.130;24.746;2023-08-31T06:31:43;8.82;;;2.53;;
8319;SDS011;4197;42.130;24.746;2023-08-31T06:34:11;5.25;;;2.85;;
8319;SDS011;4197;42.130;24.746;2023-08-31T06:36:41;5.82;;;3.05;;
8319;SDS011;4197;42.130;24.746;2023-08-31T06:39:09;5.22;;;3.00;;
8319;SDS011;4197;42.130;24.746;2023-08-31T06:41:37;6.43;;;2.60;;
8319;SDS011;4197;42.130;24.746;2023-08-31T06:44:06;7.80;;;3.00;;
8319;SDS011;4197;42.130;24.746;2023-08-31T06:46:34;7.03;;;2.60;;
8319;SDS011;4197;42.130;24.746;2023-08-31T06:49:04;6.90;;;2.38;;
8319;SDS011;4197;42.130;24.746;2023-08-31T06:51:33;7.30;;;2.53;;
8319;SDS011;4197;42.130;24.746;2023-08-31T06:54:02;6.30;;;2.22;;
8319;SDS011;4197;42.130;24.746;2023-08-31T06:56:32;7.85;;;2.70;;
8319;SDS011;4197;42.130;24.746;2023-08-31T06:59:01;5.47;;;2.50;;
8319;SDS011;4197;42.130;24.746;2023-08-31T07:01:30;4.50;;;2.50;;
8319;SDS011;4197;42.130;24.746;2023-08-31T07:03:59;7.03;;;2.40;;
8319;SDS011;4197;42.130;24.746;2023-08-31T07:06:28;9.88;;;2.67;;
8319;SDS011;4197;42.130;24.746;2023-08-31T07:08:56;6.43;;;2.63;;
8319;SDS011;4197;42.130;24.746;2023-08-31T07:11:25;6.47;;;2.40;;
8319;SDS011;4197;42.130;24.746;2023-08-31T07:13:54;6.20;;;2.63;;
8319;SDS011;4197;42.130;24.746;2023-08-31T07:16:24;8.20;;;2.22;;
8319;SDS011;4197;42.130;24.746;2023-08-31T07:18:52;7.60;;;2.40;;
8319;SDS011;4197;42.130;24.746;2023-08-31T07:21:20;13.20;;;4.22;;
8319;SDS011;4197;42.130;24.746;2023-08-31T07:23:48;8.90;;;2.83;;
8319;SDS011;4197;42.130;24.746;2023-08-31T07:26:17;5.20;;;2.60;;
8319;SDS011;4197;42.130;24.746;2023-08-31T07:28:46;10.90;;;2.97;;
8319;SDS011;4197;42.130;24.746;2023-08-31T07:31:14;4.80;;;2.20;;
8319;SDS011;4197;42.130;24.746;2023-08-31T07:33:43;6.03;;;2.42;;
8319;SDS011;4197;42.130;24.746;2023-08-31T07:36:11;8.07;;;2.83;;
8319;SDS011;4197;42.130;24.746;2023-08-31T07:38:41;7.30;;;2.95;;
8319;SDS011;4197;42.130;24.746;2023-08-31T07:41:10;6.57;;;2.47;;
8319;SDS011;4197;42.130;24.746;2023-08-31T07:43:38;4.28;;;2.25;;
8319;SDS011;4197;42.130;24.746;2023-08-31T07:46:25;7.68;;;2.35;;
8319;SDS011;4197;42.130;24.746;2023-08-31T07:48:54;8.82;;;2.70;;
8319;SDS011;4197;42.130;24.746;2023-08-31T07:51:22;4.70;;;1.80;;
8319;SDS011;4197;42.130;24.746;2023-08-31T07:53:52;6.70;;;2.50;;
8319;SDS011;4197;42.130;24.746;2023-08-31T07:56:20;7.05;;;2.03;;
8319;SDS011;4197;42.130;24.746;2023-08-31T07:58:50;5.78;;;2.38;;
8319;SDS011;4197;42.130;24.746;2023-08-31T08:01:18;5.45;;;2.08;;
8319;SDS011;4197;42.130;24.746;2023-08-31T08:03:48;7.20;;;2.30;;
8319;SDS011;4197;42.130;24.746;2023-08-31T08:06:16;8.13;;;2.08;;
8319;SDS011;4197;42.130;24.746;2023-08-31T08:08:44;5.35;;;2.05;;
8319;SDS011;4197;42.130;24.746;2023-08-31T08:11:13;3.47;;;2.03;;
8319;SDS011;4197;42.130;24.746;2023-08-31T08:13:41;6.38;;;2.75;;
8319;SDS011;4197;42.130;24.746;2023-08-31T08:16:12;7.47;;;2.50;;
8319;SDS011;4197;42.130;24.746;2023-08-31T08:18:41;5.38;;;1.90;;
8319;SDS011;4197;42.130;24.746;2023-08-31T08:21:10;6.80;;;2.00;;
8319;SDS011;4197;42.130;24.746;2023-08-31T08:23:38;5.30;;;1.90;;
8319;SDS011;4197;42.130;24.746;2023-08-31T08:26:07;9.38;;;2.33;;
8319;SDS011;4197;42.130;24.746;2023-08-31T08:28:35;4.70;;;1.75;;
8319;SDS011;4197;42.130;24.746;2023-08-31T08:31:03;5.25;;;1.92;;
8319;SDS011;4197;42.130;24.746;2023-08-31T08:33:32;4.85;;;1.70;;
8319;SDS011;4197;42.130;24.746;2023-08-31T08:36:00;4.57;;;2.08;;
8319;SDS011;4197;42.130;24.746;2023-08-31T08:38:29;8.48;;;2.03;;
8319;SDS011;4197;42.130;24.746;2023-08-31T08:40:58;5.38;;;1.63;;
8319;SDS011;4197;42.130;24.746;2023-08-31T08:43:33;7.97;;;2.20;;
8319;SDS011;4197;42.130;24.746;2023-08-31T08:46:03;4.20;;;1.65;;
8319;SDS011;4197;42.130;24.746;2023-08-31T08:48:33;4.32;;;2.05;;
8319;SDS011;4197;42.130;24.746;2023-08-31T08:51:02;7.18;;;1.77;;
8319;SDS011;4197;42.130;24.746;2023-08-31T08:53:33;5.03;;;1.55;;
8319;SDS011;4197;42.130;24.746;2023-08-31T08:56:04;5.43;;;1.80;;
8319;SDS011;4197;42.130;24.746;2023-08-31T08:58:32;4.75;;;1.52;;
8319;SDS011;4197;42.130;24.746;2023-08-31T09:01:01;3.95;;;1.80;;
8319;SDS011;4197;42.130;24.746;2023-08-31T09:03:31;7.72;;;2.13;;
8319;SDS011;4197;42.130;24.746;2023-08-31T09:05:59;6.38;;;2.20;;
8319;SDS011;4197;42.130;24.746;2023-08-31T09:08:33;5.28;;;2.10;;
8319;SDS011;4197;42.130;24.746;2023-08-31T09:11:03;3.97;;;2.00;;
8319;SDS011;4197;42.130;24.746;2023-08-31T09:13:33;4.53;;;1.80;;
8319;SDS011;4197;42.130;24.746;2023-08-31T09:16:01;5.55;;;1.98;;
8319;SDS011;4197;42.130;24.746;2023-08-31T09:18:30;4.93;;;1.73;;
8319;SDS011;4197;42.130;24.746;2023-08-31T09:21:00;6.95;;;2.30;;
8319;SDS011;4197;42.130;24.746;2023-08-31T09:23:29;3.50;;;1.38;;
8319;SDS011;4197;42.130;24.746;2023-08-31T09:25:59;3.55;;;1.77;;
8319;SDS011;4197;42.130;24.746;2023-08-31T09:28:28;14.32;;;3.20;;
8319;SDS011;4197;42.130;24.746;2023-08-31T09:31:04;3.20;;;1.50;;
8319;SDS011;4197;42.130;24.746;2023-08-31T09:33:34;4.07;;;1.70;;
8319;SDS011;4197;42.130;24.746;2023-08-31T09:36:05;3.65;;;1.92;;
8319;SDS011;4197;42.130;24.746;2023-08-31T09:38:40;6.93;;;2.00;;
8319;SDS011;4197;42.130;24.746;2023-08-31T09:41:13;5.30;;;2.03;;
8319;SDS011;4197;42.130;24.746;2023-08-31T09:43:42;4.20;;;1.65;;
8319;SDS011;4197;42.130;24.746;2023-08-31T09:46:10;4.85;;;2.05;;
8319;SDS011;4197;42.130;24.746;2023-08-31T09:48:40;4.95;;;2.00;;
8319;SDS011;4197;42.130;24.746;2023-08-31T09:51:10;7.60;;;1.88;;
8319;SDS011;4197;42.130;24.746;2023-08-31T09:53:39;4.40;;;1.98;;
8319;SDS011;4197;42.130;24.746;2023-08-31T09:56:10;7.22;;;1.98;;
8319;SDS011;4197;42.130;24.746;2023-08-31T09:58:46;13.02;;;2.17;;
8319;SDS011;4197;42.130;24.746;2023-08-31T10:01:16;7.18;;;2.15;;
8319;SDS011;4197;42.130;24.746;2023-08-31T10:03:54;3.42;;;1.55;;
8319;SDS011;4197;42.130;24.746;2023-08-31T10:06:25;3.05;;;1.83;;
8319;SDS011;4197;42.130;24.746;2023-08-31T10:08:55;6.28;;;1.90;;
8319;SDS011;4197;42.130;24.746;2023-08-31T10:11:26;4.18;;;1.88;;
8319;SDS011;4197;42.130;24.746;2023-08-31T10:13:57;5.07;;;2.00;;
8319;SDS011;4197;42.130;24.746;2023-08-31T10:16:26;5.72;;;2.42;;
8319;SDS011;4197;42.130;24.746;2023-08-31T10:18:55;4.65;;;2.20;;
8319;SDS011;4197;42.130;24.746;2023-08-31T10:21:23;11.20;;;2.22;;
8319;SDS011;4197;42.130;24.746;2023-08-31T10:23:52;38.35;;;5.68;;
8319;SDS011;4197;42.130;24.746;2023-08-31T10:26:23;15.15;;;2.90;;
8319;SDS011;4197;42.130;24.746;2023-08-31T10:28:54;2.53;;;1.63;;
8319;SDS011;4197;42.130;24.746;2023-08-31T10:31:23;4.00;;;2.13;;
8319;SDS011;4197;42.130;24.746;2023-08-31T10:33:55;4.90;;;2.05;;
8319;SDS011;4197;42.130;24.746;2023-08-31T10:36:35;7.03;;;2.30;;
8319;SDS011;4197;42.130;24.746;2023-08-31T10:39:06;6.32;;;2.20;;
8319;SDS011;4197;42.130;24.746;2023-08-31T10:41:39;5.82;;;2.40;;
8319;SDS011;4197;42.130;24.746;2023-08-31T10:44:18;7.97;;;2.10;;
8319;SDS011;4197;42.130;24.746;2023-08-31T10:46:48;4.63;;;2.00;;
8319;SDS011;4197;42.130;24.746;2023-08-31T10:49:18;4.47;;;2.13;;
8319;SDS011;4197;42.130;24.746;2023-08-31T10:51:48;4.78;;;2.28;;
8319;SDS011;4197;42.130;24.746;2023-08-31T10:54:21;4.93;;;2.03;;
8319;SDS011;4197;42.130;24.746;2023-08-31T10:56:51;7.13;;;2.35;;
8319;SDS011;4197;42.130;24.746;2023-08-31T10:59:22;20.65;;;3.70;;
8319;SDS011;4197;42.130;24.746;2023-08-31T11:01:52;35.63;;;5.10;;
8319;SDS011;4197;42.130;24.746;2023-08-31T11:04:22;8.75;;;2.53;;
8319;SDS011;4197;42.130;24.746;2023-08-31T11:09:42;8.82;;;2.55;;
8319;SDS011;4197;42.130;24.746;2023-08-31T11:12:11;6.07;;;2.53;;
8319;SDS011;4197;42.130;24.746;2023-08-31T11:14:41;5.03;;;2.00;;
8319;SDS011;4197;42.130;24.746;2023-08-31T11:17:10;6.18;;;2.10;;
8319;SDS011;4197;42.130;24.746;2023-08-31T11:19:38;8.35;;;2.80;;
8319;SDS011;4197;42.130;24.746;2023-08-31T11:22:06;5.90;;;2.05;;
8319;SDS011;4197;42.130;24.746;2023-08-31T11:24:36;13.20;;;2.70;;
8319;SDS011;4197;42.130;24.746;2023-08-31T11:27:07;5.60;;;2.30;;
8319;SDS011;4197;42.130;24.746;2023-08-31T11:29:37;5.05;;;2.03;;
8319;SDS011;4197;42.130;24.746;2023-08-31T11:32:08;7.57;;;2.50;;
8319;SDS011;4197;42.130;24.746;2023-08-31T11:34:39;5.35;;;2.72;;
8319;SDS011;4197;42.130;24.746;2023-08-31T11:37:08;6.38;;;2.20;;
8319;SDS011;4197;42.130;24.746;2023-08-31T11:39:37;8.27;;;2.45;;
8319;SDS011;4197;42.130;24.746;2023-08-31T11:42:06;6.18;;;2.10;;
8319;SDS011;4197;42.130;24.746;2023-08-31T11:44:35;6.72;;;2.25;;
8319;SDS011;4197;42.130;24.746;2023-08-31T11:47:04;10.88;;;3.13;;
8319;SDS011;4197;42.130;24.746;2023-08-31T11:49:34;29.30;;;4.00;;
8319;SDS011;4197;42.130;24.746;2023-08-31T11:52:03;20.58;;;3.53;;
8319;SDS011;4197;42.130;24.746;2023-08-31T11:54:32;8.23;;;2.88;;
8319;SDS011;4197;42.130;24.746;2023-08-31T11:57:00;13.88;;;2.95;;
8319;SDS011;4197;42.130;24.746;2023-08-31T11:59:30;11.50;;;3.28;;
8319;SDS011;4197;42.130;24.746;2023-08-31T12:02:05;9.70;;;2.70;;
8319;SDS011;4197;42.130;24.746;2023-08-31T12:04:41;11.52;;;2.63;;
8319;SDS011;4197;42.130;24.746;2023-08-31T12:07:11;7.45;;;2.25;;
8319;SDS011;4197;42.130;24.746;2023-08-31T12:09:43;4.75;;;1.80;;
8319;SDS011;4197;42.130;24.746;2023-08-31T12:12:13;7.40;;;2.50;;
8319;SDS011;4197;42.130;24.746;2023-08-31T12:14:43;7.70;;;2.60;;
8319;SDS011;4197;42.130;24.746;2023-08-31T12:17:11;10.02;;;2.70;;
8319;SDS011;4197;42.130;24.746;2023-08-31T12:19:42;10.48;;;3.00;;
8319;SDS011;4197;42.130;24.746;2023-08-31T12:22:10;10.00;;;2.38;;
8319;SDS011;4197;42.130;24.746;2023-08-31T12:24:40;17.02;;;3.08;;
8319;SDS011;4197;42.130;24.746;2023-08-31T12:27:09;10.98;;;2.92;;
8319;SDS011;4197;42.130;24.746;2023-08-31T12:29:37;11.68;;;3.22;;
8319;SDS011;4197;42.130;24.746;2023-08-31T12:32:05;7.07;;;2.38;;
8319;SDS011;4197;42.130;24.746;2023-08-31T12:34:34;14.98;;;3.38;;
8319;SDS011;4197;42.130;24.746;2023-08-31T12:37:04;8.18;;;2.42;;
8319;SDS011;4197;42.130;24.746;2023-08-31T12:39:32;8.07;;;1.98;;
8319;SDS011;4197;42.130;24.746;2023-08-31T12:42:00;12.65;;;2.95;;
8319;SDS011;4197;42.130;24.746;2023-08-31T12:44:48;14.07;;;2.80;;
8319;SDS011;4197;42.130;24.746;2023-08-31T12:47:16;7.53;;;3.00;;
8319;SDS011;4197;42.130;24.746;2023-08-31T12:49:44;14.70;;;3.63;;
8319;SDS011;4197;42.130;24.746;2023-08-31T12:52:15;13.70;;;3.30;;
8319;SDS011;4197;42.130;24.746;2023-08-31T12:54:43;8.57;;;2.60;;
8319;SDS011;4197;42.130;24.746;2023-08-31T12:57:11;11.40;;;3.00;;
8319;SDS011;4197;42.130;24.746;2023-08-31T12:59:39;24.23;;;4.07;;
8319;SDS011;4197;42.130;24.746;2023-08-31T13:02:08;14.80;;;4.18;;
8319;SDS011;4197;42.130;24.746;2023-08-31T13:04:39;11.38;;;3.10;;
8319;SDS011;4197;42.130;24.746;2023-08-31T13:07:07;12.70;;;2.83;;
8319;SDS011;4197;42.130;24.746;2023-08-31T13:09:37;7.40;;;2.38;;
8319;SDS011;4197;42.130;24.746;2023-08-31T13:12:05;8.25;;;2.63;;
8319;SDS011;4197;42.130;24.746;2023-08-31T13:14:34;7.43;;;2.47;;
8319;SDS011;4197;42.130;24.746;2023-08-31T13:17:02;20.75;;;3.65;;
8319;SDS011;4197;42.130;24.746;2023-08-31T13:19:30;19.33;;;4.05;;
8319;SDS011;4197;42.130;24.746;2023-08-31T13:21:59;12.10;;;3.28;;
8319;SDS011;4197;42.130;24.746;2023-08-31T13:24:27;14.40;;;3.70;;
8319;SDS011;4197;42.130;24.746;2023-08-31T13:26:56;10.63;;;3.00;;
8319;SDS011;4197;42.130;24.746;2023-08-31T13:29:24;14.35;;;3.45;;
8319;SDS011;4197;42.130;24.746;2023-08-31T13:31:53;23.23;;;3.97;;
8319;SDS011;4197;42.130;24.746;2023-08-31T13:34:21;12.48;;;3.45;;
8319;SDS011;4197;42.130;24.746;2023-08-31T13:36:49;9.02;;;3.03;;
8319;SDS011;4197;42.130;24.746;2023-08-31T13:39:17;6.13;;;2.70;;
8319;SDS011;4197;42.130;24.746;2023-08-31T13:41:46;13.30;;;3.55;;
8319;SDS011;4197;42.130;24.746;2023-08-31T13:44:16;14.32;;;4.10;;
8319;SDS011;4197;42.130;24.746;2023-08-31T13:46:44;14.02;;;3.45;;
8319;SDS011;4197;42.130;24.746;2023-08-31T13:49:12;9.80;;;3.13;;
8319;SDS011;4197;42.130;24.746;2023-08-31T13:51:41;14.40;;;4.03;;
8319;SDS011;4197;42.130;24.746;2023-08-31T13:54:09;12.50;;;3.05;;
8319;SDS011;4197;42.130;24.746;2023-08-31T13:56:37;10.32;;;3.10;;
8319;SDS011;4197;42.130;24.746;2023-08-31T13:59:06;24.48;;;5.25;;
8319;SDS011;4197;42.130;24.746;2023-08-31T14:01:35;16.88;;;3.90;;
8319;SDS011;4197;42.130;24.746;2023-08-31T14:04:05;15.45;;;3.72;;
8319;SDS011;4197;42.130;24.746;2023-08-31T14:06:34;7.13;;;3.08;;
8319;SDS011;4197;42.130;24.746;2023-08-31T14:09:02;8.55;;;2.70;;
8319;SDS011;4197;42.130;24.746;2023-08-31T14:11:33;8.02;;;3.45;;
8319;SDS011;4197;42.130;24.746;2023-08-31T14:14:03;9.35;;;4.32;;
8319;SDS011;4197;42.130;24.746;2023-08-31T14:16:37;15.23;;;3.72;;
8319;SDS011;4197;42.130;24.746;2023-08-31T14:19:05;17.00;;;5.47;;
8319;SDS011;4197;42.130;24.746;2023-08-31T14:21:33;8.85;;;3.28;;
8319;SDS011;4197;42.130;24.746;2023-08-31T14:24:02;9.13;;;3.40;;
8319;SDS011;4197;42.130;24.746;2023-08-31T14:26:30;6.65;;;3.08;;
8319;SDS011;4197;42.130;24.746;2023-08-31T14:28:59;6.78;;;2.85;;
8319;SDS011;4197;42.130;24.746;2023-08-31T14:31:27;4.82;;;2.60;;
8319;SDS011;4197;42.130;24.746;2023-08-31T14:33:56;6.15;;;2.75;;
8319;SDS011;4197;42.130;24.746;2023-08-31T14:36:25;6.97;;;2.75;;
8319;SDS011;4197;42.130;24.746;2023-08-31T14:38:53;5.35;;;2.67;;
8319;SDS011;4197;42.130;24.746;2023-08-31T14:41:22;4.68;;;2.70;;
8319;SDS011;4197;42.130;24.746;2023-08-31T14:43:50;6.65;;;2.70;;
8319;SDS011;4197;42.130;24.746;2023-08-31T14:46:18;4.18;;;2.35;;
8319;SDS011;4197;42.130;24.746;2023-08-31T14:48:48;6.32;;;3.10;;
8319;SDS011;4197;42.130;24.746;2023-08-31T14:51:17;5.97;;;2.90;;
8319;SDS011;4197;42.130;24.746;2023-08-31T14:53:46;5.15;;;2.70;;
8319;SDS011;4197;42.130;24.746;2023-08-31T14:56:14;8.80;;;2.78;;
8319;SDS011;4197;42.130;24.746;2023-08-31T14:58:42;6.88;;;3.10;;
8319;SDS011;4197;42.130;24.746;2023-08-31T15:01:10;8.10;;;3.15;;
8319;SDS011;4197;42.130;24.746;2023-08-31T15:03:39;7.00;;;3.20;;
8319;SDS011;4197;42.130;24.746;2023-08-31T15:06:11;7.63;;;2.80;;
8319;SDS011;4197;42.130;24.746;2023-08-31T15:08:41;7.72;;;3.45;;
8319;SDS011;4197;42.130;24.746;2023-08-31T15:11:09;10.27;;;2.70;;
8319;SDS011;4197;42.130;24.746;2023-08-31T15:13:41;4.57;;;3.08;;
8319;SDS011;4197;42.130;24.746;2023-08-31T15:16:09;6.20;;;3.10;;